x

Keaton Beach, Fl (ktnf1) Weather Station

8:00pm - Fri 23rd Jun 2017 All times are EDT. -4 hours from GMT.

  • Wind
    8mph, 9mph gusts
  • Air Temp 83°f
  • Sea Pressure 1014.9mb
  • Keaton Beach, Fl
  • Keaton Beach, Fl

More Historic Weather Station data

Upgrade to MSW Pro to gain access to the past 30 days of data for over 8000 Wavebouys and Weather Stations around the globe.

Join Pro

Comparision Forecast

View Surf forecast
   
Fri 06/23 8:00pm 8 9 mph 1014.9mb 83f
7:00pm 9 11 mph 1015.2mb 83f
6:00pm 11 14 mph 1015.5mb 83f
5:00pm 14 15 mph 1016mb 83f
4:00pm 11 14 mph 1016.4mb 83f
3:00pm 13 15 mph 1016.7mb 83f
2:00pm 13 14 mph 1016.9mb 82f
1:00pm 11 14 mph 1017.2mb 83f
12:00pm 13 14 mph 1017.2mb 83f
11:00am 14 16 mph 1017.4mb 83f
10:00am 9 10 mph 1017.4mb 82f
9:00am 8 9 mph 1017.2mb 82f
8:00am 6 7 mph 1016.7mb 77f
7:00am 7 8 mph 1016.3mb 75f
6:00am 6 7 mph 1016mb 75f
5:00am 2 3 mph 1015.7mb 76f
4:00am 3 5 mph 1015.8mb 78f
3:00am 8 10 mph 1016.2mb 78f
2:00am 8 9 mph 1017mb 79f
1:00am 7 8 mph 1017.6mb 78f
12:00am 5 5 mph 1017.7mb 78f
Thu 06/22 11:00pm 6 7 mph 1017.4mb 79f
10:00pm 3 3 mph 1016.7mb 82f
9:00pm 3 5 mph 1016.5mb 82f
8:00pm 5 7 mph 1016.2mb 83f
7:00pm 9 10 mph 1016.3mb 83f
6:00pm 7 9 mph 1016.4mb 83f
5:00pm 10 11 mph 1016.8mb 83f
4:00pm 13 15 mph 1017.3mb 83f
3:00pm 13 14 mph 1017.4mb 83f
2:00pm 15 17 mph 1017.7mb 83f
1:00pm 14 15 mph 1017.9mb 82f
12:00pm 17 20 mph 1018.2mb 82f
11:00am 14 16 mph 1018.2mb 82f
10:00am 14 16 mph 1018.1mb 81f
9:00am 11 14 mph 1017.6mb 79f
8:00am 9 11 mph 1017.1mb 76f
7:00am 9 11 mph 1016.6mb 74f
6:00am 8 10 mph 1016.3mb 74f
5:00am 9 10 mph 1016.3mb 74f
4:00am 7 9 mph 1016.3mb 74f
3:00am 8 10 mph 1016.7mb 75f
2:00am 13 13 mph 1017.1mb 76f
1:00am 13 14 mph 1017.5mb 77f
12:00am 11 14 mph 1017.8mb 77f
Wed 06/21 11:00pm 11 14 mph 1017.4mb 77f
10:00pm 11 13 mph 1017mb 78f
9:00pm 10 13 mph 1016.3mb 79f
8:00pm 5 7 mph 1016.2mb 83f
7:00pm 7 9 mph 1015.5mb 84f
6:00pm 6 9 mph 1015.4mb 84f
5:00pm 6 8 mph 1015.4mb 84f
4:00pm 6 7 mph 1015.8mb 82f
3:00pm 11 13 mph 1016.5mb 83f
2:00pm 11 13 mph 1016.4mb 83f
1:00pm 11 15 mph 1016.5mb 83f
12:00pm 11 13 mph 1016.5mb 82f
11:00am 14 17 mph 1016.3mb 81f
10:00am 9 13 mph 1015.9mb 80f
9:00am 10 13 mph 1015.6mb 78f
8:00am 10 13 mph 1014.9mb 77f
7:00am 13 17 mph 1014.3mb 76f
6:00am 11 15 mph 1014mb 76f
5:00am 10 11 mph 1014.1mb 76f
4:00am 10 13 mph 1014.8mb 76f
3:00am 7 8 mph 1015.1mb 76f
2:00am 11 13 mph 1015.9mb 77f
1:00am 13 14 mph 1015.3mb 76f
12:00am 13 15 mph 1015.4mb 76f
Tue 06/20 11:00pm 11 15 mph 1015.4mb 77f
10:00pm 8 10 mph 1015.2mb 78f
9:00pm 8 11 mph 1014.8mb 78f
8:00pm 8 11 mph 1014.9mb 79f
7:00pm 7 10 mph 1014.4mb 80f
6:00pm 5 6 mph 1014.3mb 82f
5:00pm 5 7 mph 1014.5mb 81f
4:00pm 5 6 mph 1015.1mb 81f
3:00pm 7 10 mph 1015.4mb 81f
2:00pm 10 13 mph 1015.8mb 80f
1:00pm 9 11 mph 1016.4mb 80f
12:00pm 10 13 mph 1016.5mb 78f
11:00am 10 13 mph 1016.5mb 77f
10:00am 8 11 mph 1016.5mb 76f
9:00am 8 11 mph 1016.5mb 74f
8:00am 7 9 mph 1016.3mb 73f
7:00am 8 13 mph 1015.8mb 73f
6:00am 6 8 mph 1015.8mb 73f
5:00am 6 8 mph 1015.6mb 73f
4:00am 3 6 mph 1015.8mb 73f
3:00am 3 6 mph 1015.9mb 74f
2:00am 1 2 mph 1016.6mb 74f